sensor_id;sensor_type;location;lat;lon;timestamp;temperature;humidity
44843;DHT22;31884;52.538;13.820;2023-02-12T00:00:01;7.40;99.90
44843;DHT22;31884;52.538;13.820;2023-02-12T00:02:27;7.40;99.90
44843;DHT22;31884;52.538;13.820;2023-02-12T00:04:52;7.30;99.90
44843;DHT22;31884;52.538;13.820;2023-02-12T00:07:18;7.30;99.90
44843;DHT22;31884;52.538;13.820;2023-02-12T00:09:43;7.30;99.90
44843;DHT22;31884;52.538;13.820;2023-02-12T00:12:09;7.40;99.90
44843;DHT22;31884;52.538;13.820;2023-02-12T00:14:36;7.30;99.90
44843;DHT22;31884;52.538;13.820;2023-02-12T00:17:01;7.30;99.90
44843;DHT22;31884;52.538;13.820;2023-02-12T00:19:28;7.30;99.90
44843;DHT22;31884;52.538;13.820;2023-02-12T00:21:53;7.30;99.90
44843;DHT22;31884;52.538;13.820;2023-02-12T00:24:19;7.30;99.90
44843;DHT22;31884;52.538;13.820;2023-02-12T00:26:44;7.30;99.90
44843;DHT22;31884;52.538;13.820;2023-02-12T00:29:10;7.30;99.90
44843;DHT22;31884;52.538;13.820;2023-02-12T00:31:35;7.30;99.90
44843;DHT22;31884;52.538;13.820;2023-02-12T00:34:01;7.30;99.90
44843;DHT22;31884;52.538;13.820;2023-02-12T00:36:28;7.30;99.90
44843;DHT22;31884;52.538;13.820;2023-02-12T00:38:54;7.30;99.90
44843;DHT22;31884;52.538;13.820;2023-02-12T00:41:21;7.30;99.90
44843;DHT22;31884;52.538;13.820;2023-02-12T00:43:48;7.30;99.90
44843;DHT22;31884;52.538;13.820;2023-02-12T00:46:13;7.30;99.90
44843;DHT22;31884;52.538;13.820;2023-02-12T00:48:39;7.30;99.90
44843;DHT22;31884;52.538;13.820;2023-02-12T00:51:05;7.30;99.90
44843;DHT22;31884;52.538;13.820;2023-02-12T00:53:31;7.30;99.90
44843;DHT22;31884;52.538;13.820;2023-02-12T00:55:57;7.30;99.90
44843;DHT22;31884;52.538;13.820;2023-02-12T00:58:23;7.30;99.90
44843;DHT22;31884;52.538;13.820;2023-02-12T01:00:49;7.30;99.90
44843;DHT22;31884;52.538;13.820;2023-02-12T01:03:15;7.30;99.90
44843;DHT22;31884;52.538;13.820;2023-02-12T01:05:41;7.30;99.90
44843;DHT22;31884;52.538;13.820;2023-02-12T01:08:07;7.30;99.90
44843;DHT22;31884;52.538;13.820;2023-02-12T01:10:35;7.30;99.90
44843;DHT22;31884;52.538;13.820;2023-02-12T01:13:00;7.20;99.90
44843;DHT22;31884;52.538;13.820;2023-02-12T01:15:26;7.30;99.90
44843;DHT22;31884;52.538;13.820;2023-02-12T01:17:52;7.30;99.90
44843;DHT22;31884;52.538;13.820;2023-02-12T01:20:19;7.30;99.90
44843;DHT22;31884;52.538;13.820;2023-02-12T01:22:45;7.30;99.90
44843;DHT22;31884;52.538;13.820;2023-02-12T01:25:11;7.30;99.90
44843;DHT22;31884;52.538;13.820;2023-02-12T01:27:36;7.20;99.90
44843;DHT22;31884;52.538;13.820;2023-02-12T01:30:05;7.30;99.90
44843;DHT22;31884;52.538;13.820;2023-02-12T01:32:31;7.30;99.90
44843;DHT22;31884;52.538;13.820;2023-02-12T01:34:58;7.20;99.90
44843;DHT22;31884;52.538;13.820;2023-02-12T01:37:23;7.20;99.90
44843;DHT22;31884;52.538;13.820;2023-02-12T01:39:49;7.20;99.90
44843;DHT22;31884;52.538;13.820;2023-02-12T01:42:15;7.10;99.90
44843;DHT22;31884;52.538;13.820;2023-02-12T01:44:45;7.10;99.90
44843;DHT22;31884;52.538;13.820;2023-02-12T01:47:29;7.10;99.90
44843;DHT22;31884;52.538;13.820;2023-02-12T01:49:55;7.00;99.90
44843;DHT22;31884;52.538;13.820;2023-02-12T01:52:27;7.00;99.90
44843;DHT22;31884;52.538;13.820;2023-02-12T01:54:58;7.00;99.90
44843;DHT22;31884;52.538;13.820;2023-02-12T01:57:26;7.00;99.90
44843;DHT22;31884;52.538;13.820;2023-02-12T01:59:53;7.00;99.90
44843;DHT22;31884;52.538;13.820;2023-02-12T02:02:20;7.00;99.90
44843;DHT22;31884;52.538;13.820;2023-02-12T02:04:52;6.90;99.90
44843;DHT22;31884;52.538;13.820;2023-02-12T02:07:18;6.90;99.90
44843;DHT22;31884;52.538;13.820;2023-02-12T02:09:43;6.90;99.90
44843;DHT22;31884;52.538;13.820;2023-02-12T02:12:10;6.90;99.90
44843;DHT22;31884;52.538;13.820;2023-02-12T02:14:56;6.90;99.90
44843;DHT22;31884;52.538;13.820;2023-02-12T02:17:50;6.90;99.90
44843;DHT22;31884;52.538;13.820;2023-02-12T02:20:27;7.00;99.90
44843;DHT22;31884;52.538;13.820;2023-02-12T02:32:06;7.00;99.90
44843;DHT22;31884;52.538;13.820;2023-02-12T02:37:27;7.00;99.90
44843;DHT22;31884;52.538;13.820;2023-02-12T02:40:15;7.00;99.90
44843;DHT22;31884;52.538;13.820;2023-02-12T02:42:48;7.00;99.90
44843;DHT22;31884;52.538;13.820;2023-02-12T02:48:31;7.00;99.90
44843;DHT22;31884;52.538;13.820;2023-02-12T02:51:05;7.00;99.90
44843;DHT22;31884;52.538;13.820;2023-02-12T02:53:41;7.00;99.90
44843;DHT22;31884;52.538;13.820;2023-02-12T02:56:11;7.00;99.90
44843;DHT22;31884;52.538;13.820;2023-02-12T02:58:42;7.00;99.90
44843;DHT22;31884;52.538;13.820;2023-02-12T03:01:13;7.00;99.90
44843;DHT22;31884;52.538;13.820;2023-02-12T03:03:47;7.00;99.90
44843;DHT22;31884;52.538;13.820;2023-02-12T03:06:29;7.00;99.90
44843;DHT22;31884;52.538;13.820;2023-02-12T03:09:01;7.00;99.90
44843;DHT22;31884;52.538;13.820;2023-02-12T03:11:30;7.10;99.90
44843;DHT22;31884;52.538;13.820;2023-02-12T03:14:15;7.00;99.90
44843;DHT22;31884;52.538;13.820;2023-02-12T03:16:58;7.00;99.90
44843;DHT22;31884;52.538;13.820;2023-02-12T03:19:37;7.10;99.90
44843;DHT22;31884;52.538;13.820;2023-02-12T03:22:18;7.00;99.90
44843;DHT22;31884;52.538;13.820;2023-02-12T03:24:56;7.00;99.90
44843;DHT22;31884;52.538;13.820;2023-02-12T03:27:31;7.00;99.90
44843;DHT22;31884;52.538;13.820;2023-02-12T03:29:58;7.00;99.90
44843;DHT22;31884;52.538;13.820;2023-02-12T03:35:28;7.00;99.90
44843;DHT22;31884;52.538;13.820;2023-02-12T03:40:37;7.00;99.90
44843;DHT22;31884;52.538;13.820;2023-02-12T03:43:24;7.00;99.90
44843;DHT22;31884;52.538;13.820;2023-02-12T03:46:10;7.00;99.90
44843;DHT22;31884;52.538;13.820;2023-02-12T03:51:22;6.90;99.90
44843;DHT22;31884;52.538;13.820;2023-02-12T03:53:51;6.90;99.90
44843;DHT22;31884;52.538;13.820;2023-02-12T03:56:21;6.90;99.90
44843;DHT22;31884;52.538;13.820;2023-02-12T03:58:48;6.90;99.90
44843;DHT22;31884;52.538;13.820;2023-02-12T04:01:14;6.90;99.90
44843;DHT22;31884;52.538;13.820;2023-02-12T04:03:40;6.90;99.90
44843;DHT22;31884;52.538;13.820;2023-02-12T04:06:22;6.90;99.90
44843;DHT22;31884;52.538;13.820;2023-02-12T04:08:48;6.80;99.90
44843;DHT22;31884;52.538;13.820;2023-02-12T04:14:17;6.80;99.90
44843;DHT22;31884;52.538;13.820;2023-02-12T04:16:53;6.80;99.90
44843;DHT22;31884;52.538;13.820;2023-02-12T04:19:32;6.80;99.90
44843;DHT22;31884;52.538;13.820;2023-02-12T04:22:12;6.80;99.90
44843;DHT22;31884;52.538;13.820;2023-02-12T04:25:04;6.70;99.90
44843;DHT22;31884;52.538;13.820;2023-02-12T04:27:39;6.70;99.90
44843;DHT22;31884;52.538;13.820;2023-02-12T04:30:06;6.70;99.90
44843;DHT22;31884;52.538;13.820;2023-02-12T04:32:42;6.60;99.90
44843;DHT22;31884;52.538;13.820;2023-02-12T04:37:47;6.60;99.90
44843;DHT22;31884;52.538;13.820;2023-02-12T04:40:16;6.60;99.90
44843;DHT22;31884;52.538;13.820;2023-02-12T04:42:44;6.50;99.90
44843;DHT22;31884;52.538;13.820;2023-02-12T04:45:11;6.50;99.90
44843;DHT22;31884;52.538;13.820;2023-02-12T04:47:38;6.60;99.90
44843;DHT22;31884;52.538;13.820;2023-02-12T04:50:04;6.50;99.90
44843;DHT22;31884;52.538;13.820;2023-02-12T04:52:30;6.50;99.90
44843;DHT22;31884;52.538;13.820;2023-02-12T04:54:55;6.50;99.90
44843;DHT22;31884;52.538;13.820;2023-02-12T04:57:21;6.60;99.90
44843;DHT22;31884;52.538;13.820;2023-02-12T04:59:46;6.50;99.90
44843;DHT22;31884;52.538;13.820;2023-02-12T05:02:12;6.50;99.90
44843;DHT22;31884;52.538;13.820;2023-02-12T05:04:37;6.60;99.90
44843;DHT22;31884;52.538;13.820;2023-02-12T05:07:03;6.50;99.90
44843;DHT22;31884;52.538;13.820;2023-02-12T05:09:28;6.50;99.90
44843;DHT22;31884;52.538;13.820;2023-02-12T05:11:54;6.50;99.90
44843;DHT22;31884;52.538;13.820;2023-02-12T05:14:19;6.60;99.90
44843;DHT22;31884;52.538;13.820;2023-02-12T05:16:45;6.60;99.90
44843;DHT22;31884;52.538;13.820;2023-02-12T05:19:10;6.60;99.90
44843;DHT22;31884;52.538;13.820;2023-02-12T05:21:37;6.50;99.90
44843;DHT22;31884;52.538;13.820;2023-02-12T05:24:03;6.50;99.90
44843;DHT22;31884;52.538;13.820;2023-02-12T05:26:28;6.50;99.90
44843;DHT22;31884;52.538;13.820;2023-02-12T05:28:54;6.50;99.90
44843;DHT22;31884;52.538;13.820;2023-02-12T05:31:19;6.50;99.90
44843;DHT22;31884;52.538;13.820;2023-02-12T05:33:46;6.60;99.90
44843;DHT22;31884;52.538;13.820;2023-02-12T05:36:15;6.50;99.90
44843;DHT22;31884;52.538;13.820;2023-02-12T05:38:41;6.60;99.90
44843;DHT22;31884;52.538;13.820;2023-02-12T05:41:15;6.50;99.90
44843;DHT22;31884;52.538;13.820;2023-02-12T05:43:41;6.50;99.90
44843;DHT22;31884;52.538;13.820;2023-02-12T05:46:07;6.50;99.90
44843;DHT22;31884;52.538;13.820;2023-02-12T05:48:33;6.50;99.90
44843;DHT22;31884;52.538;13.820;2023-02-12T05:51:08;6.50;99.90
44843;DHT22;31884;52.538;13.820;2023-02-12T05:53:33;6.60;99.90
44843;DHT22;31884;52.538;13.820;2023-02-12T05:58:32;6.60;99.90
44843;DHT22;31884;52.538;13.820;2023-02-12T06:00:57;6.60;99.90
44843;DHT22;31884;52.538;13.820;2023-02-12T06:03:23;6.60;99.90
44843;DHT22;31884;52.538;13.820;2023-02-12T06:05:52;6.60;99.90
44843;DHT22;31884;52.538;13.820;2023-02-12T06:08:18;6.60;99.90
44843;DHT22;31884;52.538;13.820;2023-02-12T06:10:43;6.60;99.90
44843;DHT22;31884;52.538;13.820;2023-02-12T06:13:08;6.60;99.90
44843;DHT22;31884;52.538;13.820;2023-02-12T06:15:37;6.60;99.90
44843;DHT22;31884;52.538;13.820;2023-02-12T06:18:02;6.60;99.90
44843;DHT22;31884;52.538;13.820;2023-02-12T06:20:28;6.60;99.90
44843;DHT22;31884;52.538;13.820;2023-02-12T06:22:53;6.60;99.90
44843;DHT22;31884;52.538;13.820;2023-02-12T06:25:19;6.60;99.90
44843;DHT22;31884;52.538;13.820;2023-02-12T06:27:45;6.60;99.90
44843;DHT22;31884;52.538;13.820;2023-02-12T06:30:11;6.60;99.90
44843;DHT22;31884;52.538;13.820;2023-02-12T06:32:36;6.70;99.90
44843;DHT22;31884;52.538;13.820;2023-02-12T06:35:02;6.70;99.90
44843;DHT22;31884;52.538;13.820;2023-02-12T06:37:27;6.70;99.90
44843;DHT22;31884;52.538;13.820;2023-02-12T06:39:53;6.70;99.90
44843;DHT22;31884;52.538;13.820;2023-02-12T06:42:18;6.70;99.90
44843;DHT22;31884;52.538;13.820;2023-02-12T06:44:44;6.70;99.90
44843;DHT22;31884;52.538;13.820;2023-02-12T06:47:10;6.70;99.90
44843;DHT22;31884;52.538;13.820;2023-02-12T06:49:36;6.70;99.90
44843;DHT22;31884;52.538;13.820;2023-02-12T06:52:02;6.70;99.90
44843;DHT22;31884;52.538;13.820;2023-02-12T06:54:27;6.70;99.90
44843;DHT22;31884;52.538;13.820;2023-02-12T06:56:52;6.70;99.90
44843;DHT22;31884;52.538;13.820;2023-02-12T06:59:18;6.70;99.90
44843;DHT22;31884;52.538;13.820;2023-02-12T07:01:44;6.70;99.90
44843;DHT22;31884;52.538;13.820;2023-02-12T07:04:10;6.70;99.90
44843;DHT22;31884;52.538;13.820;2023-02-12T07:06:35;6.70;99.90
44843;DHT22;31884;52.538;13.820;2023-02-12T07:09:02;6.70;99.90
44843;DHT22;31884;52.538;13.820;2023-02-12T07:11:30;6.70;99.90
44843;DHT22;31884;52.538;13.820;2023-02-12T07:13:56;6.80;99.90
44843;DHT22;31884;52.538;13.820;2023-02-12T07:16:22;6.80;99.90
44843;DHT22;31884;52.538;13.820;2023-02-12T07:18:48;6.80;99.90
44843;DHT22;31884;52.538;13.820;2023-02-12T07:21:15;6.80;99.90
44843;DHT22;31884;52.538;13.820;2023-02-12T07:23:41;6.90;99.90
44843;DHT22;31884;52.538;13.820;2023-02-12T07:26:11;6.90;99.90
44843;DHT22;31884;52.538;13.820;2023-02-12T07:28:38;6.90;99.90
44843;DHT22;31884;52.538;13.820;2023-02-12T07:31:19;6.90;99.90
44843;DHT22;31884;52.538;13.820;2023-02-12T07:33:45;6.90;99.90
44843;DHT22;31884;52.538;13.820;2023-02-12T07:36:13;7.00;99.90
44843;DHT22;31884;52.538;13.820;2023-02-12T07:38:39;7.00;99.90
44843;DHT22;31884;52.538;13.820;2023-02-12T07:43:36;7.00;99.90
44843;DHT22;31884;52.538;13.820;2023-02-12T07:46:10;7.10;99.90
44843;DHT22;31884;52.538;13.820;2023-02-12T07:48:36;7.20;99.90
44843;DHT22;31884;52.538;13.820;2023-02-12T07:51:04;7.20;99.90
44843;DHT22;31884;52.538;13.820;2023-02-12T07:53:30;7.20;99.90
44843;DHT22;31884;52.538;13.820;2023-02-12T07:56:06;7.20;99.90
44843;DHT22;31884;52.538;13.820;2023-02-12T07:58:32;7.30;99.90
44843;DHT22;31884;52.538;13.820;2023-02-12T08:00:57;7.30;99.90
44843;DHT22;31884;52.538;13.820;2023-02-12T08:03:23;7.30;99.90
44843;DHT22;31884;52.538;13.820;2023-02-12T08:05:48;7.30;99.90
44843;DHT22;31884;52.538;13.820;2023-02-12T08:08:14;7.30;99.90
44843;DHT22;31884;52.538;13.820;2023-02-12T08:10:39;7.30;99.90
44843;DHT22;31884;52.538;13.820;2023-02-12T08:13:05;7.30;99.90
44843;DHT22;31884;52.538;13.820;2023-02-12T08:15:30;7.40;99.90
44843;DHT22;31884;52.538;13.820;2023-02-12T08:17:56;7.40;99.90
44843;DHT22;31884;52.538;13.820;2023-02-12T08:20:21;7.50;99.90
44843;DHT22;31884;52.538;13.820;2023-02-12T08:22:46;7.50;99.90
44843;DHT22;31884;52.538;13.820;2023-02-12T08:25:12;7.50;99.90
44843;DHT22;31884;52.538;13.820;2023-02-12T08:27:40;7.60;99.90
44843;DHT22;31884;52.538;13.820;2023-02-12T08:30:06;7.60;99.90
44843;DHT22;31884;52.538;13.820;2023-02-12T08:32:32;7.70;99.90
44843;DHT22;31884;52.538;13.820;2023-02-12T08:34:58;7.70;99.90
44843;DHT22;31884;52.538;13.820;2023-02-12T08:37:23;7.80;99.90
44843;DHT22;31884;52.538;13.820;2023-02-12T08:39:49;7.80;99.90
44843;DHT22;31884;52.538;13.820;2023-02-12T08:42:14;7.80;99.90
44843;DHT22;31884;52.538;13.820;2023-02-12T08:44:41;7.90;99.90
44843;DHT22;31884;52.538;13.820;2023-02-12T08:47:06;7.90;99.90
44843;DHT22;31884;52.538;13.820;2023-02-12T08:49:34;8.00;99.90
44843;DHT22;31884;52.538;13.820;2023-02-12T08:52:00;8.00;99.90
44843;DHT22;31884;52.538;13.820;2023-02-12T08:54:27;8.00;99.90
44843;DHT22;31884;52.538;13.820;2023-02-12T08:56:55;8.10;99.90
44843;DHT22;31884;52.538;13.820;2023-02-12T08:59:21;8.10;99.90
44843;DHT22;31884;52.538;13.820;2023-02-12T09:01:49;8.20;99.90
44843;DHT22;31884;52.538;13.820;2023-02-12T09:04:20;8.20;99.90
44843;DHT22;31884;52.538;13.820;2023-02-12T09:06:46;8.30;99.90
44843;DHT22;31884;52.538;13.820;2023-02-12T09:09:13;8.30;99.90
44843;DHT22;31884;52.538;13.820;2023-02-12T09:11:39;8.30;99.90
44843;DHT22;31884;52.538;13.820;2023-02-12T09:14:07;8.40;99.90
44843;DHT22;31884;52.538;13.820;2023-02-12T09:16:35;8.50;99.90
44843;DHT22;31884;52.538;13.820;2023-02-12T09:19:01;8.50;99.90
44843;DHT22;31884;52.538;13.820;2023-02-12T09:21:26;8.50;99.90
44843;DHT22;31884;52.538;13.820;2023-02-12T09:23:52;8.60;99.90
44843;DHT22;31884;52.538;13.820;2023-02-12T09:26:19;8.60;99.90
44843;DHT22;31884;52.538;13.820;2023-02-12T09:28:46;8.70;99.90
44843;DHT22;31884;52.538;13.820;2023-02-12T09:31:14;8.70;99.90
44843;DHT22;31884;52.538;13.820;2023-02-12T09:33:41;8.70;99.90
44843;DHT22;31884;52.538;13.820;2023-02-12T09:36:15;8.70;99.90
44843;DHT22;31884;52.538;13.820;2023-02-12T09:38:41;8.70;99.90
44843;DHT22;31884;52.538;13.820;2023-02-12T09:41:11;8.80;99.90
44843;DHT22;31884;52.538;13.820;2023-02-12T09:43:44;8.80;99.90
44843;DHT22;31884;52.538;13.820;2023-02-12T09:46:18;8.90;99.90
44843;DHT22;31884;52.538;13.820;2023-02-12T09:49:07;8.90;99.90
44843;DHT22;31884;52.538;13.820;2023-02-12T09:51:35;9.00;99.90
44843;DHT22;31884;52.538;13.820;2023-02-12T09:54:06;9.10;99.90
44843;DHT22;31884;52.538;13.820;2023-02-12T09:56:36;9.20;99.90
44843;DHT22;31884;52.538;13.820;2023-02-12T09:59:05;9.20;99.90
44843;DHT22;31884;52.538;13.820;2023-02-12T10:01:32;9.30;99.90
44843;DHT22;31884;52.538;13.820;2023-02-12T10:03:58;9.20;99.90
44843;DHT22;31884;52.538;13.820;2023-02-12T10:06:29;9.30;99.90
44843;DHT22;31884;52.538;13.820;2023-02-12T10:15:01;9.40;99.90
44843;DHT22;31884;52.538;13.820;2023-02-12T10:17:40;9.60;99.90
44843;DHT22;31884;52.538;13.820;2023-02-12T10:22:46;9.90;99.90
44843;DHT22;31884;52.538;13.820;2023-02-12T10:28:00;10.20;99.90
44843;DHT22;31884;52.538;13.820;2023-02-12T10:33:46;10.40;99.90
44843;DHT22;31884;52.538;13.820;2023-02-12T10:36:26;10.40;99.90
44843;DHT22;31884;52.538;13.820;2023-02-12T10:44:21;10.50;99.90
44843;DHT22;31884;52.538;13.820;2023-02-12T10:46:46;10.50;99.90
44843;DHT22;31884;52.538;13.820;2023-02-12T10:49:15;10.50;99.90
44843;DHT22;31884;52.538;13.820;2023-02-12T10:51:56;10.50;99.90
44843;DHT22;31884;52.538;13.820;2023-02-12T10:54:43;10.50;99.90
44843;DHT22;31884;52.538;13.820;2023-02-12T10:57:23;10.50;99.90
44843;DHT22;31884;52.538;13.820;2023-02-12T10:59:52;10.50;99.90
44843;DHT22;31884;52.538;13.820;2023-02-12T11:02:23;10.50;99.90
44843;DHT22;31884;52.538;13.820;2023-02-12T11:04:50;10.50;99.90
44843;DHT22;31884;52.538;13.820;2023-02-12T11:07:16;10.60;99.90
44843;DHT22;31884;52.538;13.820;2023-02-12T11:09:47;10.60;99.90
44843;DHT22;31884;52.538;13.820;2023-02-12T11:14:59;10.60;99.90
44843;DHT22;31884;52.538;13.820;2023-02-12T11:17:39;10.60;99.90
44843;DHT22;31884;52.538;13.820;2023-02-12T11:20:38;10.50;99.90
44843;DHT22;31884;52.538;13.820;2023-02-12T11:23:06;10.40;99.90
44843;DHT22;31884;52.538;13.820;2023-02-12T11:25:55;10.30;99.90
44843;DHT22;31884;52.538;13.820;2023-02-12T11:28:21;10.30;99.90
44843;DHT22;31884;52.538;13.820;2023-02-12T11:33:38;10.20;99.90
44843;DHT22;31884;52.538;13.820;2023-02-12T11:36:19;10.10;99.90
44843;DHT22;31884;52.538;13.820;2023-02-12T11:38:57;10.10;99.90
44843;DHT22;31884;52.538;13.820;2023-02-12T11:41:33;10.20;99.90
44843;DHT22;31884;52.538;13.820;2023-02-12T11:44:07;10.20;99.90
44843;DHT22;31884;52.538;13.820;2023-02-12T11:46:33;10.30;99.90
44843;DHT22;31884;52.538;13.820;2023-02-12T11:49:00;10.40;99.90
44843;DHT22;31884;52.538;13.820;2023-02-12T11:51:28;10.40;99.90
44843;DHT22;31884;52.538;13.820;2023-02-12T11:53:57;10.50;99.90
44843;DHT22;31884;52.538;13.820;2023-02-12T11:56:24;10.50;99.90
44843;DHT22;31884;52.538;13.820;2023-02-12T11:59:28;10.50;99.90
44843;DHT22;31884;52.538;13.820;2023-02-12T12:01:56;10.50;99.90
44843;DHT22;31884;52.538;13.820;2023-02-12T12:04:26;10.50;99.90
44843;DHT22;31884;52.538;13.820;2023-02-12T12:07:00;10.40;99.90
44843;DHT22;31884;52.538;13.820;2023-02-12T12:12:36;10.30;99.90
44843;DHT22;31884;52.538;13.820;2023-02-12T12:15:18;10.30;99.90
44843;DHT22;31884;52.538;13.820;2023-02-12T12:18:18;10.30;99.90
44843;DHT22;31884;52.538;13.820;2023-02-12T12:21:19;10.20;99.90
44843;DHT22;31884;52.538;13.820;2023-02-12T12:23:51;10.10;99.90
44843;DHT22;31884;52.538;13.820;2023-02-12T12:26:23;10.00;99.90
44843;DHT22;31884;52.538;13.820;2023-02-12T12:29:03;10.10;99.90
44843;DHT22;31884;52.538;13.820;2023-02-12T12:31:34;10.00;99.90
44843;DHT22;31884;52.538;13.820;2023-02-12T12:34:04;10.00;99.90
44843;DHT22;31884;52.538;13.820;2023-02-12T12:47:24;9.60;99.90
44843;DHT22;31884;52.538;13.820;2023-02-12T12:52:49;9.50;99.90
44843;DHT22;31884;52.538;13.820;2023-02-12T13:07:26;9.80;99.90
44843;DHT22;31884;52.538;13.820;2023-02-12T13:13:01;10.00;99.90
44843;DHT22;31884;52.538;13.820;2023-02-12T13:18:39;10.20;99.90
44843;DHT22;31884;52.538;13.820;2023-02-12T13:31:54;10.30;99.90
44843;DHT22;31884;52.538;13.820;2023-02-12T13:34:21;10.30;99.90
44843;DHT22;31884;52.538;13.820;2023-02-12T13:36:51;10.20;99.90
44843;DHT22;31884;52.538;13.820;2023-02-12T13:53:25;10.10;99.90
44843;DHT22;31884;52.538;13.820;2023-02-12T13:56:20;10.00;99.90
44843;DHT22;31884;52.538;13.820;2023-02-12T13:58:52;9.90;99.90
44843;DHT22;31884;52.538;13.820;2023-02-12T14:01:38;9.80;99.90
44843;DHT22;31884;52.538;13.820;2023-02-12T14:07:09;9.70;99.90
44843;DHT22;31884;52.538;13.820;2023-02-12T14:14:55;9.80;99.90
44843;DHT22;31884;52.538;13.820;2023-02-12T14:24:56;10.00;99.90
44843;DHT22;31884;52.538;13.820;2023-02-12T14:35:35;10.10;99.90
44843;DHT22;31884;52.538;13.820;2023-02-12T14:40:36;10.10;99.90
44843;DHT22;31884;52.538;13.820;2023-02-12T14:45:50;10.10;99.90
44843;DHT22;31884;52.538;13.820;2023-02-12T14:48:50;10.10;99.90
44843;DHT22;31884;52.538;13.820;2023-02-12T14:51:37;10.10;99.90
44843;DHT22;31884;52.538;13.820;2023-02-12T14:54:14;10.10;99.90
44843;DHT22;31884;52.538;13.820;2023-02-12T14:56:46;10.00;99.90
44843;DHT22;31884;52.538;13.820;2023-02-12T14:59:19;10.00;99.90
44843;DHT22;31884;52.538;13.820;2023-02-12T15:01:46;10.00;99.90
44843;DHT22;31884;52.538;13.820;2023-02-12T15:04:25;10.00;99.90
44843;DHT22;31884;52.538;13.820;2023-02-12T15:07:02;9.90;99.90
44843;DHT22;31884;52.538;13.820;2023-02-12T15:09:56;9.90;99.90
44843;DHT22;31884;52.538;13.820;2023-02-12T15:12:29;9.90;99.90
44843;DHT22;31884;52.538;13.820;2023-02-12T15:15:27;9.90;99.90
44843;DHT22;31884;52.538;13.820;2023-02-12T15:18:24;9.90;99.90
44843;DHT22;31884;52.538;13.820;2023-02-12T15:23:39;9.80;99.90
44843;DHT22;31884;52.538;13.820;2023-02-12T15:26:13;9.80;99.90
44843;DHT22;31884;52.538;13.820;2023-02-12T15:28:40;9.70;99.90
44843;DHT22;31884;52.538;13.820;2023-02-12T15:31:07;9.80;99.90
44843;DHT22;31884;52.538;13.820;2023-02-12T15:33:38;9.70;99.90
44843;DHT22;31884;52.538;13.820;2023-02-12T15:36:06;9.70;99.90
44843;DHT22;31884;52.538;13.820;2023-02-12T15:38:40;9.60;99.90
44843;DHT22;31884;52.538;13.820;2023-02-12T15:41:06;9.60;99.90
44843;DHT22;31884;52.538;13.820;2023-02-12T15:43:34;9.60;99.90
44843;DHT22;31884;52.538;13.820;2023-02-12T15:46:01;9.50;99.90
44843;DHT22;31884;52.538;13.820;2023-02-12T15:48:30;9.50;99.90
44843;DHT22;31884;52.538;13.820;2023-02-12T15:53:31;9.40;99.90
44843;DHT22;31884;52.538;13.820;2023-02-12T15:55:58;9.40;99.90
44843;DHT22;31884;52.538;13.820;2023-02-12T15:58:36;9.30;99.90
44843;DHT22;31884;52.538;13.820;2023-02-12T16:01:05;9.30;99.90
44843;DHT22;31884;52.538;13.820;2023-02-12T16:03:33;9.20;99.90
44843;DHT22;31884;52.538;13.820;2023-02-12T16:06:08;9.20;99.90
44843;DHT22;31884;52.538;13.820;2023-02-12T16:08:36;9.20;99.90
44843;DHT22;31884;52.538;13.820;2023-02-12T16:11:02;9.20;99.90
44843;DHT22;31884;52.538;13.820;2023-02-12T16:13:41;9.20;99.90
44843;DHT22;31884;52.538;13.820;2023-02-12T16:16:18;9.10;99.90
44843;DHT22;31884;52.538;13.820;2023-02-12T16:18:43;9.10;99.90
44843;DHT22;31884;52.538;13.820;2023-02-12T16:21:14;9.10;99.90
44843;DHT22;31884;52.538;13.820;2023-02-12T16:23:45;9.10;99.90
44843;DHT22;31884;52.538;13.820;2023-02-12T16:26:19;9.00;99.90
44843;DHT22;31884;52.538;13.820;2023-02-12T16:28:47;9.00;99.90
44843;DHT22;31884;52.538;13.820;2023-02-12T16:31:14;9.00;99.90
44843;DHT22;31884;52.538;13.820;2023-02-12T16:33:43;8.90;99.90
44843;DHT22;31884;52.538;13.820;2023-02-12T16:43:44;8.90;99.90
44843;DHT22;31884;52.538;13.820;2023-02-12T16:46:10;8.90;99.90
44843;DHT22;31884;52.538;13.820;2023-02-12T16:48:39;8.90;99.90
44843;DHT22;31884;52.538;13.820;2023-02-12T16:51:05;8.90;99.90
44843;DHT22;31884;52.538;13.820;2023-02-12T16:53:36;8.80;99.90
44843;DHT22;31884;52.538;13.820;2023-02-12T16:56:11;8.80;99.90
44843;DHT22;31884;52.538;13.820;2023-02-12T16:58:37;8.80;99.90
44843;DHT22;31884;52.538;13.820;2023-02-12T17:01:03;8.80;99.90
44843;DHT22;31884;52.538;13.820;2023-02-12T17:03:29;8.70;99.90
44843;DHT22;31884;52.538;13.820;2023-02-12T17:05:54;8.70;99.90
44843;DHT22;31884;52.538;13.820;2023-02-12T17:08:22;8.70;99.90
44843;DHT22;31884;52.538;13.820;2023-02-12T17:10:48;8.60;99.90
44843;DHT22;31884;52.538;13.820;2023-02-12T17:13:14;8.60;99.90
44843;DHT22;31884;52.538;13.820;2023-02-12T17:15:51;8.60;99.90
44843;DHT22;31884;52.538;13.820;2023-02-12T17:18:18;8.60;99.90
44843;DHT22;31884;52.538;13.820;2023-02-12T17:20:46;8.60;99.90
44843;DHT22;31884;52.538;13.820;2023-02-12T17:23:13;8.60;99.90
44843;DHT22;31884;52.538;13.820;2023-02-12T17:25:38;8.60;99.90
44843;DHT22;31884;52.538;13.820;2023-02-12T17:28:04;8.50;99.90
44843;DHT22;31884;52.538;13.820;2023-02-12T17:30:30;8.50;99.90
44843;DHT22;31884;52.538;13.820;2023-02-12T17:32:57;8.50;99.90
44843;DHT22;31884;52.538;13.820;2023-02-12T17:35:22;8.50;99.90
44843;DHT22;31884;52.538;13.820;2023-02-12T17:37:47;8.50;99.90
44843;DHT22;31884;52.538;13.820;2023-02-12T17:40:13;8.50;99.90
44843;DHT22;31884;52.538;13.820;2023-02-12T17:42:39;8.40;99.90
44843;DHT22;31884;52.538;13.820;2023-02-12T17:45:05;8.40;99.90
44843;DHT22;31884;52.538;13.820;2023-02-12T17:47:30;8.40;99.90
44843;DHT22;31884;52.538;13.820;2023-02-12T17:49:57;8.40;99.90
44843;DHT22;31884;52.538;13.820;2023-02-12T17:52:24;8.40;99.90
44843;DHT22;31884;52.538;13.820;2023-02-12T17:54:50;8.40;99.90
44843;DHT22;31884;52.538;13.820;2023-02-12T17:57:15;8.40;99.90
44843;DHT22;31884;52.538;13.820;2023-02-12T17:59:41;8.30;99.90
44843;DHT22;31884;52.538;13.820;2023-02-12T18:02:08;8.40;99.90
44843;DHT22;31884;52.538;13.820;2023-02-12T18:04:34;8.40;99.90
44843;DHT22;31884;52.538;13.820;2023-02-12T18:07:01;8.30;99.90
44843;DHT22;31884;52.538;13.820;2023-02-12T18:09:27;8.40;99.90
44843;DHT22;31884;52.538;13.820;2023-02-12T18:11:52;8.30;99.90
44843;DHT22;31884;52.538;13.820;2023-02-12T18:14:18;8.30;99.90
44843;DHT22;31884;52.538;13.820;2023-02-12T18:16:44;8.30;99.90
44843;DHT22;31884;52.538;13.820;2023-02-12T18:19:09;8.30;99.90
44843;DHT22;31884;52.538;13.820;2023-02-12T18:21:34;8.30;99.90
44843;DHT22;31884;52.538;13.820;2023-02-12T18:24:00;8.30;99.90